Kezdőlap
METAR-TAF:

METAR-TAF

Repülőterek :

Nagyvárad, Románia

földrajzi szélesség: 47-03N, földrajzi hosszúság: 021-56E, magasság: 135 m

Jelenlegi meteorológiai megfigyelések

A jelentés 29 perccel ezelõtt készült, 09:00 UTC
Északkeleti szél 9 kt, észak-északkeleti és keleti között változik
Hőmérséklet 9°C
Páratartalom 57%
Légköri nyomás 1031 hPa
Látótávolság 10 km, vagy több
felhőtlen 1500 m magasságban, és nincs gomolyfelhõ

METAR: LROD 160900Z 05009KT 020V080 CAVOK 09/01 Q1031

Idő: 11:29 (09:29 UTC)

Előrejelzés

A jelentés 1 órával és 29 perccel ezelõtt készült, 08:00 UTC
Az előrejelzés 16-én 09 óra UTC és 16-én 18 óra UTC között érvényes
Kelet-északkeleti szél 12 kt
Látótávolság 10 km, vagy több
felhőtlen 1500 m magasságban, és nincs gomolyfelhõ

TAF: LROD 160800Z 1609/1618 06012KT CAVOK

Meteorológiai megfigyelések és előrejelzések több, mint 4000 repülőtéren (METAR és TAF jelentéseket).

A térképen piros és sárga pontok jelzik az elérhető meteorológiai állomásokat.

Mozgassa az egeret a pont fölött, hogy megjelenjen az állomás neve.

Azután kattintson az időjárási megfigyelések és előrejelzések megtekintéséhez.

A térkép megváltoztatása: kattintson a fekete keresztel jelölt zöld gombra ráközelítéshez, a vonallal jelölt zöld gombra távolításhoz, vagy a zöld nyilakra a szomszédos térképek eléréséhez.


METAR-TAF: